Time;durP1;ratioP1;P1;durP2;ratioP2;P2;SDS_P1;SDS_P2;PMS_P1;PMS_P2;Temp;Humidity;BMP_temperature;BMP_pressure;BME280_temperature;BME280_humidity;BME280_pressure;Samples;Min_cycle;Max_cycle;Signal;HPM_P1;HPM_P2
2021/08/31 00:01:45;;;;;;;8.20;4.20;;;;;;;19.45;58.64;98782.22;5114879;28;20024;-50
2021/08/31 00:04:11;;;;;;;9.00;4.88;;;;;;;19.39;58.83;98790.44;5114928;28;20019;-51
2021/08/31 00:06:37;;;;;;;7.50;5.18;;;;;;;19.26;59.01;98783.72;5114851;28;20519;-51
2021/08/31 00:09:02;;;;;;;20.65;18.50;;;;;;;19.30;59.28;98795.44;5114715;28;20077;-50
2021/08/31 00:11:28;;;;;;;5.53;4.68;;;;;;;19.47;58.70;98792.63;5114662;28;20054;-50
2021/08/31 00:13:54;;;;;;;4.97;4.25;;;;;;;19.51;58.52;98793.72;5096392;28;20028;-50
2021/08/31 00:16:20;;;;;;;6.10;4.03;;;;;;;19.44;58.41;98793.94;5114204;28;20044;-50
2021/08/31 00:18:46;;;;;;;6.07;3.90;;;;;;;19.35;58.81;98792.81;5096321;28;20020;-50
2021/08/31 00:21:11;;;;;;;5.78;4.25;;;;;;;19.49;58.50;98793.97;5114579;28;20054;-50
2021/08/31 00:23:37;;;;;;;7.25;4.03;;;;;;;19.65;58.23;98789.56;5114485;28;20540;-50
2021/08/31 00:26:04;;;;;;;5.90;4.40;;;;;;;19.73;57.81;98786.44;5114439;28;20498;-50
2021/08/31 00:28:30;;;;;;;27.02;24.48;;;;;;;19.71;57.87;98793.09;5114334;28;20015;-50
2021/08/31 00:30:55;;;;;;;9.20;5.30;;;;;;;19.75;57.77;98799.50;5113815;28;20481;-51
2021/08/31 00:33:21;;;;;;;7.57;4.57;;;;;;;19.66;57.90;98799.16;5095953;28;20092;-50
2021/08/31 00:35:47;;;;;;;7.53;5.95;;;;;;;19.45;58.25;98792.09;5095937;28;20027;-50
2021/08/31 00:38:12;;;;;;;6.20;4.32;;;;;;;19.36;58.73;98797.09;5095851;28;20107;-50
2021/08/31 00:40:38;;;;;;;11.05;5.15;;;;;;;19.34;58.61;98792.03;5095739;28;20443;-50
2021/08/31 00:43:05;;;;;;;8.02;5.55;;;;;;;19.27;58.89;98794.06;5095803;28;20114;-50
2021/08/31 00:45:31;;;;;;;7.00;4.47;;;;;;;19.26;58.86;98792.50;5113967;28;20020;-50
2021/08/31 00:47:58;;;;;;;6.90;4.68;;;;;;;19.14;59.08;98797.19;5095553;28;20025;-50
2021/08/31 00:50:24;;;;;;;6.97;4.82;;;;;;;19.06;59.49;98795.00;5095596;28;20027;-51
2021/08/31 00:52:51;;;;;;;77.43;70.38;;;;;;;18.96;59.74;98791.16;5095589;28;20027;-50
2021/08/31 00:55:17;;;;;;;7.90;7.18;;;;;;;19.01;59.82;98794.94;5113797;28;20107;-50
2021/08/31 00:57:43;;;;;;;8.98;4.68;;;;;;;19.15;59.59;98798.78;5113856;28;20471;-50
2021/08/31 01:00:12;;;;;;;7.47;4.60;;;;;;;19.17;59.35;98788.69;5113734;28;20033;-50
2021/08/31 01:02:37;;;;;;;6.05;4.70;;;;;;;19.06;59.54;98795.78;5095330;28;20020;-50
2021/08/31 01:05:05;;;;;;;10.48;5.22;;;;;;;18.89;59.69;98797.75;5095546;28;20031;-50
2021/08/31 01:07:32;;;;;;;12.93;10.70;;;;;;;18.77;59.97;98796.03;5113523;28;20012;-50
2021/08/31 01:10:00;;;;;;;8.68;4.97;;;;;;;18.71;59.88;98794.38;5113560;28;20020;-50
2021/08/31 01:12:27;;;;;;;7.07;4.95;;;;;;;18.62;60.43;98798.53;5095136;28;20031;-50
2021/08/31 01:14:54;;;;;;;11.20;5.40;;;;;;;18.50;60.87;98795.22;5113154;28;20016;-51
2021/08/31 01:17:25;;;;;;;14.82;10.10;;;;;;;18.50;61.17;98798.66;5113418;28;20023;-50
2021/08/31 01:19:51;;;;;;;9.20;5.78;;;;;;;18.54;60.95;98805.09;5095133;28;20030;-50
2021/08/31 01:22:16;;;;;;;8.63;6.35;;;;;;;18.61;60.67;98802.22;5113267;28;20015;-50
2021/08/31 01:24:46;;;;;;;6.43;4.72;;;;;;;18.68;60.50;98804.69;5094945;28;20107;-50
2021/08/31 01:27:12;;;;;;;13.40;5.40;;;;;;;18.72;60.52;98803.94;5113242;28;20073;-51
2021/08/31 01:29:39;;;;;;;7.25;4.85;;;;;;;18.85;60.38;98802.75;5113107;28;20024;-50
2021/08/31 01:32:06;;;;;;;5.43;4.75;;;;;;;18.95;59.90;98807.38;5094797;28;20097;-50
2021/08/31 01:34:32;;;;;;;5.28;4.78;;;;;;;18.98;59.59;98808.75;5094765;28;20603;-51
2021/08/31 01:36:58;;;;;;;5.80;5.10;;;;;;;18.91;59.82;98808.94;5113065;28;20389;-50
2021/08/31 01:39:24;;;;;;;7.80;5.25;;;;;;;18.92;59.65;98797.25;5094612;28;20493;-50
2021/08/31 01:41:50;;;;;;;14.73;6.72;;;;;;;18.82;60.00;98803.28;5093881;28;20023;-50
2021/08/31 01:44:16;;;;;;;8.43;5.10;;;;;;;18.76;60.13;98799.72;5112900;28;20019;-50
2021/08/31 01:46:42;;;;;;;11.23;5.47;;;;;;;18.69;60.29;98795.66;5094524;28;20397;-51
2021/08/31 01:49:08;;;;;;;6.07;5.22;;;;;;;18.62;60.63;98803.84;5112753;28;20020;-50
2021/08/31 01:51:33;;;;;;;5.78;4.60;;;;;;;18.68;60.37;98802.03;5094481;28;20112;-50
2021/08/31 01:54:00;;;;;;;8.48;5.20;;;;;;;18.73;60.34;98799.41;5112785;28;20058;-51
2021/08/31 01:56:26;;;;;;;7.65;5.13;;;;;;;18.70;60.47;98797.28;5112701;28;20553;-50
2021/08/31 01:58:52;;;;;;;7.25;5.20;;;;;;;18.82;60.40;98800.63;5094371;28;20031;-50
2021/08/31 02:01:18;;;;;;;9.45;5.32;;;;;;;19.04;59.92;98802.41;5112567;28;20098;-50
2021/08/31 02:03:43;;;;;;;7.80;5.20;;;;;;;19.18;59.56;98800.94;5112614;28;20462;-50
2021/08/31 02:06:09;;;;;;;9.98;5.47;;;;;;;19.22;59.04;98810.03;5094251;28;20023;-50
2021/08/31 02:08:35;;;;;;;9.30;5.28;;;;;;;19.17;59.23;98804.63;5112440;28;20034;-50
2021/08/31 02:11:01;;;;;;;6.68;5.38;;;;;;;19.28;58.98;98806.34;5094314;28;20027;-50
2021/08/31 02:13:27;;;;;;;7.85;5.30;;;;;;;19.32;58.58;98806.66;5112426;28;20093;-50
2021/08/31 02:15:52;;;;;;;15.35;7.65;;;;;;;19.34;59.00;98797.34;5112131;28;20047;-50
2021/08/31 02:18:18;;;;;;;8.85;5.80;;;;;;;19.46;58.10;98802.50;5112369;28;20508;-50
2021/08/31 02:20:43;;;;;;;12.77;5.30;;;;;;;19.40;58.19;98800.84;5112337;28;20435;-49
2021/08/31 02:23:09;;;;;;;8.25;6.20;;;;;;;19.29;58.26;98807.94;5093998;28;20508;-49
2021/08/31 02:25:38;;;;;;;9.45;6.93;;;;;;;19.20;58.55;98804.16;5093983;28;20031;-50
2021/08/31 02:28:04;;;;;;;11.30;10.20;;;;;;;19.10;58.95;98809.38;5112465;28;20058;-49
2021/08/31 02:30:29;;;;;;;14.98;13.48;;;;;;;19.11;58.99;98805.66;5110871;28;20062;-50
2021/08/31 02:32:59;;;;;;;9.88;8.45;;;;;;;19.20;58.76;98798.03;5112200;28;20065;-50
2021/08/31 02:35:26;;;;;;;9.38;8.32;;;;;;;19.08;58.87;98806.19;5112210;28;20154;-50
2021/08/31 02:37:52;;;;;;;11.52;7.15;;;;;;;19.11;58.86;98806.44;5112220;28;20034;-50
2021/08/31 02:40:17;;;;;;;28.35;18.05;;;;;;;19.02;59.11;98802.66;5112069;28;20091;-50
2021/08/31 02:42:43;;;;;;;7.95;6.30;;;;;;;19.18;58.94;98806.25;5112157;28;20067;-50
2021/08/31 02:45:10;;;;;;;11.35;8.27;;;;;;;19.19;58.49;98812.38;5112361;28;20143;-50
2021/08/31 02:47:35;;;;;;;15.15;13.18;;;;;;;19.13;58.51;98809.66;5112013;28;20051;-50
2021/08/31 02:50:01;;;;;;;10.70;6.13;;;;;;;19.08;58.85;98819.47;5112039;28;20107;-50
2021/08/31 02:52:27;;;;;;;7.40;6.57;;;;;;;19.12;58.88;98825.91;5112480;28;20023;-50
2021/08/31 02:54:53;;;;;;;26.83;23.63;;;;;;;19.30;58.52;98824.72;5097895;28;20103;-49
2021/08/31 02:57:19;;;;;;;6.15;5.47;;;;;;;19.43;58.09;98818.94;5114767;28;20020;-50
2021/08/31 02:59:48;;;;;;;7.88;6.57;;;;;;;19.55;57.58;98816.13;5097774;28;20119;-50
2021/08/31 03:02:13;;;;;;;8.45;5.88;;;;;;;19.43;57.55;98824.28;5116260;28;20527;-50
2021/08/31 03:04:42;;;;;;;26.67;23.77;;;;;;;19.20;58.13;98824.66;5097638;28;20497;-49
2021/08/31 03:07:10;;;;;;;6.40;5.80;;;;;;;19.00;58.63;98822.59;5115911;28;20038;-50
2021/08/31 03:09:36;;;;;;;13.15;6.35;;;;;;;18.85;58.90;98824.03;5115830;28;20397;-50
2021/08/31 03:12:02;;;;;;;10.98;7.30;;;;;;;18.77;59.29;98827.94;5115867;28;20493;-50
2021/08/31 03:14:28;;;;;;;12.15;6.78;;;;;;;18.72;59.47;98824.41;5115836;28;20095;-50
2021/08/31 03:16:55;;;;;;;10.25;7.97;;;;;;;18.64;59.58;98836.28;5115466;28;20070;-49
2021/08/31 03:19:23;;;;;;;12.32;7.13;;;;;;;18.57;59.84;98827.69;5115688;28;20497;-49
2021/08/31 03:21:49;;;;;;;32.47;29.67;;;;;;;18.54;59.78;98839.63;5115688;28;20544;-50
2021/08/31 03:24:16;;;;;;;9.95;8.70;;;;;;;18.51;59.71;98836.66;5115572;28;20150;-50
2021/08/31 03:26:42;;;;;;;11.20;10.20;;;;;;;18.46;60.21;98836.63;5115509;28;20023;-50
2021/08/31 03:29:08;;;;;;;9.63;6.65;;;;;;;18.54;60.07;98839.63;5115448;28;20020;-50
2021/08/31 03:31:34;;;;;;;12.15;10.98;;;;;;;18.42;60.04;98841.63;5097075;28;20069;-49
2021/08/31 03:33:59;;;;;;;9.48;8.32;;;;;;;18.28;60.38;98830.56;5097128;28;20023;-50
2021/08/31 03:36:25;;;;;;;26.33;23.25;;;;;;;18.28;61.09;98841.19;5115364;28;20481;-49
2021/08/31 03:38:51;;;;;;;14.50;13.02;;;;;;;18.30;60.77;98841.75;5114097;28;20019;-50
2021/08/31 03:41:16;;;;;;;8.80;6.03;;;;;;;18.32;60.63;98842.28;5115251;28;20072;-50
2021/08/31 03:43:42;;;;;;;7.40;6.70;;;;;;;18.31;60.59;98840.69;5096902;28;20047;-50
2021/08/31 03:46:08;;;;;;;11.65;10.55;;;;;;;18.34;60.75;98848.16;5115219;28;20020;-50
2021/08/31 03:48:33;;;;;;;9.82;6.85;;;;;;;18.32;60.63;98841.50;5115080;28;20019;-50
2021/08/31 03:50:59;;;;;;;16.15;14.00;;;;;;;18.40;60.75;98845.59;5115149;28;20504;-51
2021/08/31 03:53:25;;;;;;;10.82;9.75;;;;;;;18.50;60.08;98846.50;5115074;28;20050;-51
2021/08/31 03:55:51;;;;;;;13.05;11.85;;;;;;;18.63;59.92;98852.47;5096633;28;20053;-50
2021/08/31 03:58:16;;;;;;;11.00;8.25;;;;;;;18.73;59.58;98853.41;5114998;28;20054;-50
2021/08/31 04:00:42;;;;;;;11.07;7.80;;;;;;;18.93;58.90;98865.34;5096592;28;20039;-51
2021/08/31 04:03:08;;;;;;;7.20;6.50;;;;;;;19.14;58.42;98863.69;5096552;28;20028;-51
2021/08/31 04:05:33;;;;;;;10.90;9.18;;;;;;;19.31;58.03;98859.03;5095577;28;20497;-51
2021/08/31 04:07:59;;;;;;;15.20;13.00;;;;;;;19.24;57.40;98852.34;5114715;28;20497;-50
2021/08/31 04:10:25;;;;;;;16.85;14.20;;;;;;;19.01;58.16;98858.78;5113403;28;20027;-50
2021/08/31 04:12:50;;;;;;;14.82;12.98;;;;;;;18.87;58.31;98847.72;5114737;28;20427;-50
2021/08/31 04:15:16;;;;;;;23.23;14.60;;;;;;;18.76;58.57;98862.75;5096091;28;20090;-50
2021/08/31 04:17:42;;;;;;;22.92;20.42;;;;;;;18.65;58.93;98863.66;5114642;28;20031;-50
2021/08/31 04:20:08;;;;;;;23.88;14.27;;;;;;;18.50;59.71;98869.63;5113199;28;20519;-49
2021/08/31 04:22:35;;;;;;;26.25;20.95;;;;;;;18.51;60.08;98866.72;5114528;28;20027;-50
2021/08/31 04:25:00;;;;;;;11.65;7.45;;;;;;;18.58;59.52;98865.72;5113153;28;20557;-50
2021/08/31 04:27:26;;;;;;;52.95;47.25;;;;;;;18.56;59.34;98869.44;5096395;28;20122;-50
2021/08/31 04:29:52;;;;;;;12.38;9.57;;;;;;;18.47;59.48;98865.63;5114303;28;20020;-50
2021/08/31 04:32:18;;;;;;;12.68;8.15;;;;;;;18.44;59.79;98870.63;5095987;28;20122;-49
2021/08/31 04:34:43;;;;;;;19.50;11.82;;;;;;;18.42;59.84;98870.84;5114330;28;20512;-50
2021/08/31 04:37:10;;;;;;;29.88;19.80;;;;;;;18.47;59.76;98870.94;5114196;28;20518;-50
2021/08/31 04:39:35;;;;;;;15.93;14.32;;;;;;;18.61;59.22;98874.00;5114214;28;20393;-50
2021/08/31 04:42:06;;;;;;;11.38;10.23;;;;;;;18.60;59.08;98879.56;5112751;28;20030;-50
2021/08/31 04:44:35;;;;;;;22.77;16.85;;;;;;;18.57;59.15;98878.19;5114171;28;20031;-50
2021/08/31 04:47:01;;;;;;;34.35;31.15;;;;;;;18.43;59.16;98880.44;5095697;28;20027;-50
2021/08/31 04:49:27;;;;;;;12.35;8.23;;;;;;;18.26;59.42;98882.34;5113878;28;20031;-50
2021/08/31 04:51:53;;;;;;;11.52;8.50;;;;;;;18.16;60.05;98891.75;5113960;28;20035;-49
2021/08/31 04:54:19;;;;;;;9.95;7.55;;;;;;;18.10;60.37;98887.44;5113876;28;20412;-49
2021/08/31 04:56:44;;;;;;;30.58;22.70;;;;;;;18.01;60.61;98899.53;5095472;28;20027;-50
2021/08/31 04:59:10;;;;;;;40.95;37.17;;;;;;;17.95;60.89;98895.19;5113806;28;20016;-50
2021/08/31 05:01:36;;;;;;;109.28;99.18;;;;;;;17.90;61.01;98903.06;5112472;28;20101;-49
2021/08/31 05:04:01;;;;;;;88.38;80.63;;;;;;;17.88;61.04;98899.84;5113683;28;20091;-49
2021/08/31 05:06:27;;;;;;;40.60;37.05;;;;;;;17.80;61.49;98906.34;5113604;28;20485;-50
2021/08/31 05:08:53;;;;;;;23.83;21.48;;;;;;;17.81;61.97;98904.47;5113656;28;20031;-50
2021/08/31 05:11:20;;;;;;;33.88;30.33;;;;;;;17.98;61.35;98907.19;5113565;28;20078;-50
2021/08/31 05:13:45;;;;;;;57.63;51.67;;;;;;;18.20;60.66;98909.88;5095185;28;20065;-50
2021/08/31 05:16:15;;;;;;;54.58;48.70;;;;;;;18.37;60.79;98905.31;5095519;28;20526;-50
2021/08/31 05:18:41;;;;;;;41.55;36.63;;;;;;;18.52;60.05;98915.38;5071445;28;20074;-50
2021/08/31 05:21:07;;;;;;;27.05;23.15;;;;;;;18.53;60.22;98908.97;5072947;28;20028;-50
2021/08/31 05:23:33;;;;;;;35.55;31.17;;;;;;;18.70;59.72;98916.91;5072664;28;20031;-50
2021/08/31 05:26:00;;;;;;;28.48;25.63;;;;;;;18.61;59.44;98918.38;5072623;28;20061;-50
2021/08/31 05:28:25;;;;;;;20.17;10.60;;;;;;;18.34;59.77;98925.22;5072526;28;20120;-50
2021/08/31 05:30:51;;;;;;;252.50;226.32;;;;;;;18.21;60.29;98924.75;5072512;28;20546;-50
2021/08/31 05:33:20;;;;;;;264.67;236.55;;;;;;;18.23;60.08;98928.81;5071183;28;20037;-50
2021/08/31 05:35:46;;;;;;;704.60;633.55;;;;;;;18.03;60.14;98931.97;5072705;28;20036;-50
2021/08/31 05:38:12;;;;;;;244.90;222.82;;;;;;;17.97;60.63;98943.56;5072444;28;20493;-50
2021/08/31 05:40:37;;;;;;;75.45;67.68;;;;;;;17.93;60.74;98953.06;5072295;28;20024;-50
2021/08/31 05:43:03;;;;;;;39.88;27.27;;;;;;;17.84;60.65;98939.34;5072364;28;20071;-50
2021/08/31 05:45:29;;;;;;;35.95;27.83;;;;;;;17.80;60.82;98948.81;5072251;28;20547;-50
2021/08/31 05:47:55;;;;;;;145.82;101.22;;;;;;;17.76;61.06;98955.66;5072209;28;20016;-49
2021/08/31 05:50:24;;;;;;;46.67;25.13;;;;;;;17.67;61.12;98957.91;5070846;28;20031;-50
2021/08/31 05:52:50;;;;;;;31.90;27.95;;;;;;;17.56;61.47;98961.44;5070875;28;20055;-49
2021/08/31 05:55:17;;;;;;;22.65;17.75;;;;;;;17.52;61.55;98961.09;5070779;28;20410;-50
2021/08/31 05:57:43;;;;;;;29.23;23.98;;;;;;;17.56;61.68;98958.78;5072075;28;20032;-49
2021/08/31 06:00:10;;;;;;;25.88;17.05;;;;;;;17.64;61.93;98963.69;5070718;28;20035;-50
2021/08/31 06:02:38;;;;;;;46.03;32.58;;;;;;;17.86;61.33;98969.13;5072034;28;20021;-50
2021/08/31 06:05:08;;;;;;;22.90;13.52;;;;;;;18.12;61.00;98970.34;5071961;28;20102;-50
2021/08/31 06:07:34;;;;;;;23.55;20.23;;;;;;;18.17;60.12;98965.13;5072003;28;20047;-50
2021/08/31 06:10:02;;;;;;;18.02;10.38;;;;;;;18.16;59.89;98970.66;5071812;28;20047;-50
2021/08/31 06:12:28;;;;;;;19.40;16.20;;;;;;;18.11;59.89;98976.72;5071950;28;20048;-49
2021/08/31 06:14:53;;;;;;;10.43;8.65;;;;;;;18.09;59.98;98978.81;5074458;28;20130;-51
2021/08/31 06:17:21;;;;;;;14.70;12.88;;;;;;;18.08;59.79;98977.19;5112424;28;20172;-49
2021/08/31 06:19:47;;;;;;;20.42;14.38;;;;;;;18.04;60.03;98980.56;5112408;28;20116;-50
2021/08/31 06:22:15;;;;;;;22.17;14.70;;;;;;;17.92;60.20;98980.63;5112387;28;20295;-50
2021/08/31 06:24:41;;;;;;;30.50;27.38;;;;;;;17.94;60.34;98982.00;5112365;28;20027;-50
2021/08/31 06:27:07;;;;;;;25.52;23.02;;;;;;;17.97;60.11;98983.41;5093611;28;20020;-49
2021/08/31 06:29:33;;;;;;;1165.78;800.65;;;;;;;17.93;60.24;98988.38;5093758;28;20024;-49
2021/08/31 06:31:58;;;;;;;1031.13;707.28;;;;;;;17.86;60.47;98990.38;5112203;28;20023;-50
2021/08/31 06:34:24;;;;;;;1815.47;963.03;;;;;;;17.76;60.97;98998.13;5112193;28;20496;-50
2021/08/31 06:36:50;;;;;;;1284.13;849.20;;;;;;;17.69;61.38;98998.28;5110822;28;20496;-50
2021/08/31 06:39:16;;;;;;;1161.90;731.92;;;;;;;17.75;61.09;98997.34;5112128;28;20043;-50
2021/08/31 06:41:42;;;;;;;237.80;195.93;;;;;;;17.86;60.89;99001.00;5112139;28;20102;-50
2021/08/31 06:44:07;;;;;;;63.90;57.60;;;;;;;18.04;60.50;99001.81;5112107;28;20030;-50
2021/08/31 06:46:33;;;;;;;37.40;23.67;;;;;;;18.32;59.75;99000.91;5110806;28;20566;-50
2021/08/31 06:48:59;;;;;;;72.72;12.95;;;;;;;18.43;59.03;99000.03;5112021;28;20047;-50
2021/08/31 06:51:25;;;;;;;15.18;8.05;;;;;;;18.38;59.18;98999.94;5112049;28;20023;-50
2021/08/31 06:53:50;;;;;;;23.65;18.63;;;;;;;18.36;59.04;98988.75;5112056;28;20115;-50
2021/08/31 06:56:16;;;;;;;12.50;8.63;;;;;;;18.42;58.65;98994.97;5112254;28;20019;-50
2021/08/31 06:58:42;;;;;;;12.15;8.77;;;;;;;18.28;58.85;98989.16;5112025;28;20024;-49
2021/08/31 07:01:08;;;;;;;13.30;8.68;;;;;;;18.17;59.19;98997.00;5111975;28;20030;-49
2021/08/31 07:03:34;;;;;;;16.42;10.93;;;;;;;18.27;59.29;98996.34;5093574;28;20031;-49
2021/08/31 07:05:59;;;;;;;12.93;8.63;;;;;;;18.41;58.82;98994.16;5111898;28;20099;-49
2021/08/31 07:08:25;;;;;;;24.75;17.48;;;;;;;18.45;58.75;98989.97;5111837;28;20059;-50
2021/08/31 07:10:51;;;;;;;16.27;10.63;;;;;;;18.45;58.50;98992.63;5110509;28;20019;-50
2021/08/31 07:13:17;;;;;;;15.85;11.15;;;;;;;18.55;58.15;98990.09;5111861;28;20023;-50
2021/08/31 07:15:43;;;;;;;13.80;10.52;;;;;;;18.60;58.19;98999.19;5111565;28;20048;-49
2021/08/31 07:18:09;;;;;;;16.50;10.05;;;;;;;18.63;57.78;99002.16;5111746;28;20497;-50
2021/08/31 07:20:36;;;;;;;22.23;11.23;;;;;;;18.49;58.34;98999.06;5111821;28;20028;-50
2021/08/31 07:23:02;;;;;;;17.73;10.45;;;;;;;18.56;58.30;99001.53;5111747;28;20076;-50
2021/08/31 07:25:28;;;;;;;22.27;13.27;;;;;;;18.76;58.16;99001.00;5093432;28;20110;-49
2021/08/31 07:27:54;;;;;;;15.38;11.07;;;;;;;19.02;57.30;98988.88;5111656;28;20020;-50
2021/08/31 07:30:20;;;;;;;20.15;11.07;;;;;;;18.96;56.85;98998.63;5111752;28;20138;-50
2021/08/31 07:32:46;;;;;;;17.63;11.95;;;;;;;18.84;57.26;99002.47;5111712;28;20031;-50
2021/08/31 07:35:12;;;;;;;38.38;17.30;;;;;;;18.93;57.58;99003.63;5110307;28;20075;-50
2021/08/31 07:37:37;;;;;;;15.18;11.00;;;;;;;19.11;57.01;99008.63;5111696;28;20157;-50
2021/08/31 07:40:04;;;;;;;17.52;9.85;;;;;;;19.21;56.56;99007.16;5111540;28;20564;-50
2021/08/31 07:42:29;;;;;;;14.20;8.95;;;;;;;19.20;56.45;99006.38;5115375;28;20012;-50
2021/08/31 07:44:55;;;;;;;17.17;10.00;;;;;;;19.13;56.62;99003.06;5096907;28;20439;-50
2021/08/31 07:47:21;;;;;;;14.57;9.25;;;;;;;19.13;56.49;99000.41;5115189;28;20019;-50
2021/08/31 07:49:47;;;;;;;14.02;8.52;;;;;;;19.13;56.25;99003.88;5096847;28;20019;-50
2021/08/31 07:52:13;;;;;;;24.23;15.27;;;;;;;19.11;56.33;99005.97;5115124;28;20031;-49
2021/08/31 07:54:39;;;;;;;12.98;7.97;;;;;;;19.11;56.43;99013.16;5096749;28;20028;-50
2021/08/31 07:57:04;;;;;;;14.95;10.73;;;;;;;19.19;56.18;99011.94;5096657;28;20114;-50
2021/08/31 07:59:30;;;;;;;11.15;7.25;;;;;;;19.21;55.83;99009.81;5096739;28;20027;-50
2021/08/31 08:01:56;;;;;;;21.33;8.27;;;;;;;19.04;56.35;99012.56;5096576;28;20416;-50
2021/08/31 08:04:22;;;;;;;16.77;11.35;;;;;;;19.04;56.67;99012.56;5114990;28;20458;-50
2021/08/31 08:06:48;;;;;;;12.27;6.63;;;;;;;19.34;56.23;99012.91;5113515;28;20081;-50
2021/08/31 08:09:14;;;;;;;50.45;45.38;;;;;;;19.75;54.82;99015.22;5114691;28;20477;-50
2021/08/31 08:11:39;;;;;;;19.33;17.10;;;;;;;19.81;54.31;99014.19;5114772;28;20046;-50
2021/08/31 08:14:05;;;;;;;15.93;13.75;;;;;;;19.90;53.56;99010.03;5113419;28;20535;-50
2021/08/31 08:16:31;;;;;;;12.52;8.02;;;;;;;20.10;53.06;99019.22;5096145;28;20129;-49
2021/08/31 08:18:57;;;;;;;14.07;7.65;;;;;;;20.27;52.74;99027.09;5072665;28;20056;-50
2021/08/31 08:21:22;;;;;;;11.18;8.27;;;;;;;20.38;52.44;99022.63;5073956;28;20380;-50
2021/08/31 08:23:48;;;;;;;25.98;21.60;;;;;;;20.59;51.96;99013.75;5073935;28;20016;-50
2021/08/31 08:26:17;;;;;;;13.05;8.90;;;;;;;20.58;51.80;99022.75;5073815;28;20088;-49
2021/08/31 08:28:42;;;;;;;16.95;7.95;;;;;;;20.71;51.70;99013.56;5073757;28;20486;-50
2021/08/31 08:31:08;;;;;;;13.85;11.80;;;;;;;20.88;50.79;99016.03;5072657;28;20066;-50
2021/08/31 08:33:34;;;;;;;16.67;8.65;;;;;;;20.99;50.48;99012.34;5073718;28;20025;-50
2021/08/31 08:36:01;;;;;;;30.40;26.63;;;;;;;20.95;50.49;99011.28;5073677;28;20020;-50
2021/08/31 08:38:27;;;;;;;20.05;15.50;;;;;;;20.78;51.09;99024.78;5072325;28;20521;-50
2021/08/31 08:40:53;;;;;;;18.50;14.88;;;;;;;20.75;50.97;99027.97;5073587;28;20060;-50
2021/08/31 08:43:22;;;;;;;16.67;14.07;;;;;;;20.84;50.83;99029.06;5073563;28;20089;-50
2021/08/31 08:45:49;;;;;;;19.60;11.93;;;;;;;21.07;50.63;99029.75;5073482;28;20021;-49
2021/08/31 08:48:24;;;;;;;16.25;13.57;;;;;;;21.20;50.11;99042.59;5072033;28;20070;-49
2021/08/31 08:50:55;;;;;;;14.48;8.88;;;;;;;21.06;50.13;99036.13;5071644;28;20028;-49
2021/08/31 08:53:22;;;;;;;14.05;12.60;;;;;;;20.81;50.68;99039.50;5073379;28;20039;-50
2021/08/31 08:55:49;;;;;;;18.42;12.23;;;;;;;20.85;51.01;99044.03;5073199;28;20028;-49
2021/08/31 08:58:18;;;;;;;17.40;12.43;;;;;;;20.95;50.83;99040.63;5073232;28;20029;-49
2021/08/31 09:00:54;;;;;;;18.98;9.30;;;;;;;21.23;49.83;99038.56;5073194;28;20032;-50
2021/08/31 09:03:23;;;;;;;60.15;53.10;;;;;;;21.28;49.99;99044.75;5073044;28;20033;-50
2021/08/31 09:06:13;;;;;;;17.88;9.55;;;;;;;21.37;50.01;99046.91;5071755;28;20031;-50
2021/08/31 09:08:43;;;;;;;18.92;16.70;;;;;;;21.36;49.78;99046.13;5073041;28;20483;-50
2021/08/31 09:11:24;;;;;;;46.97;17.63;;;;;;;21.50;49.46;99051.78;5072962;28;20024;-50
2021/08/31 09:14:11;;;;;;;21.15;16.92;;;;;;;21.61;49.42;99048.09;5072969;28;20024;-50
2021/08/31 09:16:38;;;;;;;9.07;7.00;;;;;;;21.73;49.25;99050.50;5071093;28;20040;-50
2021/08/31 09:19:03;;;;;;;20.13;16.60;;;;;;;21.60;48.96;99062.50;5072847;28;20037;-50
2021/08/31 09:21:29;;;;;;;17.10;10.55;;;;;;;21.28;49.68;99055.44;5071471;28;20107;-50
2021/08/31 09:23:59;;;;;;;17.23;12.77;;;;;;;21.28;49.90;99057.31;5072655;28;20024;-50
2021/08/31 09:26:36;;;;;;;12.73;9.57;;;;;;;21.44;49.54;99052.84;5071406;28;20025;-50
2021/08/31 09:29:05;;;;;;;19.65;7.32;;;;;;;21.51;49.49;99054.22;5072856;28;20020;-50
2021/08/31 09:31:44;;;;;;;42.42;36.42;;;;;;;21.56;49.50;99053.41;5072796;28;20036;-50
2021/08/31 09:34:43;;;;;;;17.05;7.25;;;;;;;21.79;48.83;99044.09;5072549;28;20042;-50
2021/08/31 09:37:25;;;;;;;12.10;8.35;;;;;;;22.00;48.42;99047.59;5072480;28;20028;-50
2021/08/31 09:40:10;;;;;;;37.33;8.77;;;;;;;22.22;47.56;99042.00;5072413;28;20513;-50
2021/08/31 09:43:11;;;;;;;30.00;22.85;;;;;;;22.66;47.07;99054.03;5071209;28;20393;-51
2021/08/31 09:45:41;;;;;;;21.40;11.95;;;;;;;22.99;46.16;99055.25;5072398;28;20039;-51
2021/08/31 09:48:09;;;;;;;15.13;6.72;;;;;;;23.07;45.65;99053.94;5072202;28;20161;-50
2021/08/31 09:50:38;;;;;;;13.57;7.47;;;;;;;23.02;45.47;99059.28;5072193;28;20067;-50
2021/08/31 09:53:10;;;;;;;27.40;23.05;;;;;;;23.05;45.43;99064.91;5072173;28;20024;-50
2021/08/31 09:55:42;;;;;;;50.28;40.45;;;;;;;23.42;44.69;99061.03;5072187;28;20107;-50
2021/08/31 09:58:23;;;;;;;18.50;9.07;;;;;;;23.88;44.25;99049.25;5070768;28;20036;-50
2021/08/31 10:00:50;;;;;;;17.83;8.45;;;;;;;24.22;43.58;99051.91;5072149;28;20054;-50
2021/08/31 10:03:17;;;;;;;17.92;10.45;;;;;;;24.66;42.79;99053.69;5071427;28;20024;-50
2021/08/31 10:05:47;;;;;;;12.80;5.95;;;;;;;25.05;40.91;99047.38;5070768;28;20025;-50
2021/08/31 10:08:18;;;;;;;16.80;8.75;;;;;;;25.14;40.92;99052.91;5071971;28;20016;-50
2021/08/31 10:10:46;;;;;;;11.38;6.70;;;;;;;25.30;40.59;99050.84;5071981;28;20039;-50
2021/08/31 10:13:15;;;;;;;9.55;7.25;;;;;;;25.55;40.17;99051.59;5070674;28;20158;-50
2021/08/31 10:15:46;;;;;;;6.65;5.95;;;;;;;25.58;39.92;99049.13;5084323;28;20051;-50
2021/08/31 10:18:13;;;;;;;9.77;8.77;;;;;;;25.42;40.33;99048.53;5112369;28;20027;-50
2021/08/31 10:20:46;;;;;;;11.57;7.00;;;;;;;25.39;40.01;99048.31;5094062;28;20027;-50
2021/08/31 10:23:14;;;;;;;6.00;5.40;;;;;;;25.30;40.22;99048.97;5112434;28;20031;-50
2021/08/31 10:25:40;;;;;;;6.43;5.53;;;;;;;25.56;39.84;99051.31;5094071;28;20088;-50
2021/08/31 10:28:28;;;;;;;39.35;35.80;;;;;;;25.89;39.32;99049.47;5112250;28;20020;-50
2021/08/31 10:30:56;;;;;;;11.73;7.25;;;;;;;26.04;38.94;99051.16;5112284;28;20157;-50
2021/08/31 10:33:32;;;;;;;9.48;8.52;;;;;;;26.88;38.00;99047.56;5093970;28;20118;-50
2021/08/31 10:36:00;;;;;;;8.20;7.00;;;;;;;28.28;35.62;99046.91;5112238;28;20491;-50
2021/08/31 10:38:42;;;;;;;13.73;7.60;;;;;;;28.59;34.62;99039.94;5093852;28;20035;-50
2021/08/31 10:41:45;;;;;;;6.93;5.53;;;;;;;28.97;34.96;99032.13;5112152;28;20047;-50
2021/08/31 10:44:14;;;;;;;8.52;6.03;;;;;;;29.65;33.07;99034.50;5029465;28;20124;-50
2021/08/31 10:46:58;;;;;;;12.93;7.20;;;;;;;29.60;33.21;99029.22;5029408;28;20475;-51
2021/08/31 10:49:24;;;;;;;13.17;8.20;;;;;;;29.48;33.06;99035.28;5029364;28;20026;-51
2021/08/31 10:52:07;;;;;;;9.48;6.00;;;;;;;29.08;33.45;99040.75;5029395;28;20044;-51
2021/08/31 10:54:47;;;;;;;8.82;7.65;;;;;;;28.33;34.25;99037.88;5029376;28;20022;-50
2021/08/31 10:57:45;;;;;;;7.10;5.80;;;;;;;27.90;35.54;99046.50;5029409;28;20179;-50
2021/08/31 11:00:17;;;;;;;8.15;5.90;;;;;;;27.58;36.37;99044.78;4997248;28;20044;-50
2021/08/31 11:02:48;;;;;;;19.10;12.90;;;;;;;28.74;34.74;99038.75;5029293;28;20478;-50
2021/08/31 11:05:24;;;;;;;8.80;5.65;;;;;;;30.45;32.09;99036.81;5029238;28;20045;-51
2021/08/31 11:07:52;;;;;;;8.25;7.55;;;;;;;31.62;30.21;99029.00;5029241;28;20541;-51
2021/08/31 11:10:26;;;;;;;8.20;4.95;;;;;;;32.61;29.10;99026.59;5029264;28;20545;-50
2021/08/31 11:12:53;;;;;;;17.25;5.95;;;;;;;32.80;28.45;99020.56;5029314;28;20045;-49
2021/08/31 11:15:28;;;;;;;10.05;6.38;;;;;;;32.88;28.39;99021.59;5032258;28;20575;-49
2021/08/31 11:17:55;;;;;;;22.23;5.22;;;;;;;33.35;27.31;99027.34;5066122;28;20204;-49
2021/08/31 11:20:30;;;;;;;30.10;6.85;;;;;;;33.76;27.36;99019.97;5115800;28;20028;-49
2021/08/31 11:23:06;;;;;;;14.93;5.55;;;;;;;33.92;26.90;99020.00;5097324;28;20023;-49
2021/08/31 11:25:37;;;;;;;5.80;5.03;;;;;;;33.95;26.82;99019.31;5115749;28;20024;-49
2021/08/31 11:28:11;;;;;;;9.50;5.55;;;;;;;34.20;26.41;99016.47;5115592;28;20059;-50